createdAt,value
2022-09-24T00:01:58.908Z,51.58
2022-09-24T00:05:02.180Z,50.71
2022-09-24T00:08:05.377Z,51.84
2022-09-24T00:11:12.432Z,52.75
2022-09-24T00:14:15.794Z,52.28
2022-09-24T00:17:18.988Z,52.77
2022-09-24T00:20:22.847Z,52.86
2022-09-24T00:23:26.104Z,52.34
2022-09-24T00:26:48.595Z,52.01
2022-09-24T00:29:51.861Z,52.31
2022-09-24T00:32:55.103Z,51.70
2022-09-24T00:36:01.000Z,52.04
2022-09-24T00:39:06.019Z,52.13
2022-09-24T00:42:11.324Z,51.52
2022-09-24T00:45:14.538Z,52.05
2022-09-24T00:48:17.910Z,52.58
2022-09-24T00:51:23.343Z,53.99
2022-09-24T00:54:30.017Z,53.12
2022-09-24T00:57:35.700Z,52.64
2022-09-24T01:00:40.478Z,52.11
2022-09-24T01:03:44.044Z,52.42
2022-09-24T01:06:47.323Z,51.92
2022-09-24T01:09:50.690Z,52.35
2022-09-24T01:13:05.009Z,52.67
2022-09-24T01:16:23.411Z,53.23
2022-09-24T01:20:04.162Z,53.18
2022-09-24T01:23:49.237Z,53.08
2022-09-24T01:27:15.704Z,52.61
2022-09-24T01:30:20.729Z,52.43
2022-09-24T01:33:26.599Z,52.79
2022-09-24T01:36:32.627Z,52.53
2022-09-24T01:39:39.265Z,52.97
2022-09-24T01:42:45.329Z,53.44
2022-09-24T01:45:50.527Z,53.11
2022-09-24T01:48:53.894Z,52.74
2022-09-24T01:52:03.292Z,53.55
2022-09-24T01:55:09.036Z,54.47
2022-09-24T01:58:19.445Z,54.34
2022-09-24T02:01:31.085Z,54.42
2022-09-24T02:04:41.001Z,54.46
2022-09-24T02:07:50.117Z,53.96
2022-09-24T02:10:58.989Z,53.80
2022-09-24T02:14:07.943Z,54.40
2022-09-24T02:17:13.680Z,54.07
2022-09-24T02:20:21.292Z,54.20
2022-09-24T02:23:27.384Z,53.37
2022-09-24T02:26:30.898Z,53.63
2022-09-24T02:29:34.230Z,54.03
2022-09-24T02:32:41.996Z,53.61
2022-09-24T02:35:44.369Z,53.59
2022-09-24T02:38:48.369Z,53.44
2022-09-24T02:41:53.827Z,54.32
2022-09-24T02:44:57.579Z,53.63
2022-09-24T02:48:03.039Z,53.13
2022-09-24T02:51:06.732Z,54.31
2022-09-24T02:54:10.617Z,53.45
2022-09-24T02:57:13.905Z,53.11
2022-09-24T03:00:21.171Z,53.95
2022-09-24T03:03:26.273Z,52.95
2022-09-24T03:06:30.503Z,52.55
2022-09-24T03:09:33.862Z,52.58
2022-09-24T03:12:37.145Z,52.81
2022-09-24T03:15:40.497Z,52.77
2022-09-24T03:18:45.439Z,52.74
2022-09-24T03:21:48.695Z,52.20
2022-09-24T03:24:52.084Z,52.08
2022-09-24T03:27:55.372Z,52.45
2022-09-24T03:31:01.706Z,52.29
2022-09-24T03:34:06.410Z,52.97
2022-09-24T03:37:09.687Z,52.67
2022-09-24T03:40:13.306Z,52.60
2022-09-24T03:43:16.538Z,52.87
2022-09-24T03:46:19.782Z,53.03
2022-09-24T03:49:25.947Z,52.63
2022-09-24T03:52:29.918Z,51.95
2022-09-24T03:55:33.189Z,54.35
2022-09-24T03:58:38.995Z,54.41
2022-09-24T04:01:42.375Z,53.75
2022-09-24T04:04:47.054Z,54.08
2022-09-24T04:07:50.231Z,53.18
2022-09-24T04:10:55.498Z,53.33
2022-09-24T04:13:58.828Z,52.78
2022-09-24T04:17:02.074Z,53.36
2022-09-24T04:20:08.016Z,53.18
2022-09-24T04:23:11.788Z,52.67
2022-09-24T04:26:15.292Z,54.50
2022-09-24T04:29:18.655Z,53.46
2022-09-24T04:32:22.599Z,53.76
2022-09-24T04:35:28.050Z,52.92
2022-09-24T04:38:31.238Z,52.62
2022-09-24T04:41:35.167Z,54.68
2022-09-24T04:44:38.405Z,53.36
2022-09-24T04:47:41.919Z,52.53
2022-09-24T04:50:46.724Z,52.74
2022-09-24T04:53:50.645Z,51.68
2022-09-24T04:56:53.889Z,51.96
2022-09-24T04:59:57.165Z,51.22
2022-09-24T05:03:03.728Z,51.08
2022-09-24T05:06:08.773Z,51.47
2022-09-24T05:09:12.877Z,51.62
2022-09-24T05:12:16.169Z,51.60
2022-09-24T05:15:20.386Z,51.04
2022-09-24T05:18:23.647Z,51.29
2022-09-24T05:21:28.310Z,50.97
2022-09-24T05:24:31.522Z,50.92
2022-09-24T05:27:35.863Z,50.73
2022-09-24T05:30:39.081Z,50.45
2022-09-24T05:33:42.385Z,49.96
2022-09-24T05:36:47.098Z,49.73
2022-09-24T05:39:50.351Z,49.18
2022-09-24T05:42:53.702Z,48.69
2022-09-24T05:45:58.757Z,48.25
2022-09-24T05:49:02.036Z,48.05
2022-09-24T05:52:07.523Z,47.09
2022-09-24T05:55:12.126Z,46.27
2022-09-24T05:58:15.675Z,46.58
2022-09-24T06:01:19.012Z,46.18
2022-09-24T06:04:22.253Z,45.74
2022-09-24T06:07:26.915Z,44.69
2022-09-24T06:10:30.208Z,44.80
2022-09-24T06:13:35.097Z,43.85
2022-09-24T06:16:38.463Z,43.95
2022-09-24T06:19:42.304Z,43.68
2022-09-24T06:22:46.946Z,42.66
2022-09-24T06:25:51.314Z,42.55
2022-09-24T06:28:54.677Z,40.87
2022-09-24T06:31:57.934Z,41.68
2022-09-24T06:35:01.203Z,41.66
2022-09-24T06:38:06.711Z,41.27
2022-09-24T06:41:10.595Z,41.08
2022-09-24T06:44:13.847Z,39.90
2022-09-24T06:47:17.104Z,38.78
2022-09-24T06:50:20.464Z,38.28
2022-09-24T06:53:25.537Z,38.24
2022-09-24T06:56:28.808Z,36.88
2022-09-24T06:59:32.078Z,36.53
2022-09-24T07:02:35.367Z,36.17
2022-09-24T07:05:43.373Z,35.95
2022-09-24T07:08:51.796Z,36.29
2022-09-24T07:11:57.086Z,36.07
2022-09-24T07:15:01.580Z,35.50
2022-09-24T07:18:04.988Z,35.25
2022-09-24T07:21:08.229Z,34.16
2022-09-24T07:24:12.860Z,34.41
2022-09-24T07:27:16.350Z,34.23
2022-09-24T07:30:19.767Z,34.23
2022-09-24T07:33:23.043Z,34.42
2022-09-24T07:36:26.390Z,34.07
2022-09-24T07:39:31.531Z,33.67
2022-09-24T07:42:34.781Z,33.55
2022-09-24T07:45:38.025Z,32.69
2022-09-24T07:48:41.291Z,33.27
2022-09-24T07:51:44.551Z,33.28
2022-09-24T07:54:49.689Z,32.86
2022-09-24T07:57:54.827Z,32.93
2022-09-24T08:00:59.734Z,32.50
2022-09-24T08:04:04.693Z,32.99
2022-09-24T08:07:08.019Z,32.26
2022-09-24T08:10:12.768Z,31.55
2022-09-24T08:13:16.334Z,31.32
2022-09-24T08:16:21.653Z,31.21
2022-09-24T08:19:24.985Z,30.73
2022-09-24T08:22:28.227Z,29.32
2022-09-24T08:25:33.005Z,29.92
2022-09-24T08:28:36.541Z,30.45
2022-09-24T08:31:42.211Z,30.17
2022-09-24T08:34:45.782Z,29.47
2022-09-24T08:37:48.974Z,29.39
2022-09-24T08:41:00.309Z,28.21
2022-09-24T08:44:06.953Z,28.35
2022-09-24T08:47:24.863Z,27.97
2022-09-24T08:50:31.252Z,27.53
2022-09-24T08:53:45.530Z,27.45
2022-09-24T08:56:52.103Z,26.08
2022-09-24T08:59:55.807Z,26.68
2022-09-24T09:03:05.199Z,26.24
2022-09-24T09:06:17.657Z,26.23
2022-09-24T09:09:24.712Z,26.15
2022-09-24T09:12:36.297Z,25.76
2022-09-24T09:15:44.247Z,25.91
2022-09-24T09:18:51.060Z,25.91
2022-09-24T09:21:57.204Z,26.18
2022-09-24T09:25:05.121Z,24.48
2022-09-24T09:28:15.209Z,25.38
2022-09-24T09:31:29.203Z,25.05
2022-09-24T09:34:47.916Z,25.72
2022-09-24T09:37:58.569Z,26.38
2022-09-24T09:41:08.292Z,25.86
2022-09-24T09:44:19.884Z,25.16
2022-09-24T09:47:33.431Z,24.55
2022-09-24T09:50:40.692Z,24.23
2022-09-24T09:53:55.598Z,23.50
2022-09-24T09:56:58.899Z,23.23
2022-09-24T10:00:05.191Z,23.39
2022-09-24T10:03:27.363Z,23.29
2022-09-24T10:06:32.902Z,23.80
2022-09-24T10:09:36.586Z,23.62
2022-09-24T10:12:39.803Z,23.05
2022-09-24T10:15:53.121Z,21.73
2022-09-24T10:18:56.477Z,22.81
2022-09-24T10:22:08.441Z,22.51
2022-09-24T10:25:20.775Z,23.26
2022-09-24T10:28:42.891Z,22.76
2022-09-24T10:31:49.048Z,23.16
2022-09-24T10:35:00.590Z,23.75
2022-09-24T10:38:16.066Z,23.47
2022-09-24T10:41:28.059Z,22.99
2022-09-24T10:44:36.796Z,22.78
2022-09-24T10:47:51.967Z,23.39
2022-09-24T10:51:04.220Z,22.53
2022-09-24T10:54:34.686Z,23.12
2022-09-24T10:57:50.891Z,22.99
2022-09-24T11:01:04.951Z,23.05
2022-09-24T11:04:24.172Z,22.63
2022-09-24T11:07:40.945Z,22.82
2022-09-24T11:11:19.647Z,22.88
2022-09-24T11:14:39.096Z,22.81
2022-09-24T11:17:53.331Z,22.58
2022-09-24T11:21:07.019Z,22.62
2022-09-24T11:24:35.436Z,22.82
2022-09-24T11:27:52.840Z,22.56
2022-09-24T11:31:04.939Z,22.68
2022-09-24T11:34:27.483Z,22.55
2022-09-24T11:37:47.323Z,22.03
2022-09-24T11:41:10.481Z,22.54
2022-09-24T11:44:41.149Z,22.99
2022-09-24T11:48:06.819Z,22.45
2022-09-24T11:51:21.736Z,23.42
2022-09-24T11:54:32.789Z,23.90
2022-09-24T11:57:40.838Z,23.48
2022-09-24T12:00:48.257Z,22.88
2022-09-24T12:03:58.469Z,22.61
2022-09-24T12:07:12.884Z,22.82
2022-09-24T12:10:34.825Z,22.46
2022-09-24T12:13:42.418Z,21.89
2022-09-24T12:16:50.336Z,21.80
2022-09-24T12:20:00.880Z,22.73
2022-09-24T12:23:08.099Z,22.60
2022-09-24T12:26:16.453Z,22.91
2022-09-24T12:29:53.126Z,22.42
2022-09-24T12:33:05.152Z,22.54
2022-09-24T12:36:14.396Z,21.97
2022-09-24T12:39:20.384Z,23.11
2022-09-24T12:42:29.174Z,22.81
2022-09-24T12:45:35.340Z,22.48
2022-09-24T12:48:41.213Z,22.68
2022-09-24T12:51:44.611Z,22.15
2022-09-24T12:54:55.249Z,22.38
2022-09-24T12:58:03.297Z,22.53
2022-09-24T13:01:14.530Z,22.96
2022-09-24T13:04:28.244Z,22.36
2022-09-24T13:07:35.054Z,22.51
2022-09-24T13:10:38.583Z,22.65
2022-09-24T13:13:44.863Z,22.60
2022-09-24T13:16:50.455Z,22.41
2022-09-24T13:19:59.200Z,22.71
2022-09-24T13:23:16.547Z,23.06
2022-09-24T13:26:35.040Z,22.66
2022-09-24T13:29:41.748Z,23.18
2022-09-24T13:32:59.062Z,22.69
2022-09-24T13:36:12.096Z,23.28
2022-09-24T13:39:19.345Z,23.42
2022-09-24T13:42:35.293Z,23.36
2022-09-24T13:45:42.803Z,23.37
2022-09-24T13:48:51.586Z,23.67
2022-09-24T13:52:13.149Z,23.37
2022-09-24T13:55:21.702Z,23.70
2022-09-24T13:58:29.105Z,23.50
2022-09-24T14:01:40.506Z,23.72
2022-09-24T14:04:44.174Z,23.51
2022-09-24T14:07:56.973Z,23.88
2022-09-24T14:11:09.837Z,24.38
2022-09-24T14:14:19.980Z,24.52
2022-09-24T14:17:24.771Z,24.52
2022-09-24T14:20:34.579Z,24.06
2022-09-24T14:23:42.309Z,23.87
2022-09-24T14:26:51.088Z,24.33
2022-09-24T14:29:58.177Z,24.30
2022-09-24T14:33:06.415Z,24.27
2022-09-24T14:36:12.939Z,24.52
2022-09-24T14:39:16.332Z,24.22
2022-09-24T14:42:25.801Z,24.66
2022-09-24T14:45:34.331Z,25.01
2022-09-24T14:48:39.877Z,25.02
2022-09-24T14:51:54.648Z,24.80
2022-09-24T14:55:15.414Z,24.74
2022-09-24T14:58:36.633Z,24.86
2022-09-24T15:01:40.125Z,24.62
2022-09-24T15:04:48.684Z,25.42
2022-09-24T15:07:52.315Z,25.29
2022-09-24T15:10:57.105Z,25.80
2022-09-24T15:14:02.539Z,25.69
2022-09-24T15:17:22.698Z,25.79
2022-09-24T15:20:27.321Z,26.09
2022-09-24T15:23:30.654Z,26.04
2022-09-24T15:26:36.922Z,25.92
2022-09-24T15:29:40.266Z,25.99
2022-09-24T15:32:43.764Z,26.17
2022-09-24T15:35:48.898Z,26.76
2022-09-24T15:38:53.262Z,26.88
2022-09-24T15:41:56.556Z,27.27
2022-09-24T15:45:00.249Z,27.19
2022-09-24T15:48:03.829Z,27.74
2022-09-24T15:51:15.408Z,27.92
2022-09-24T15:54:19.044Z,27.99
2022-09-24T15:57:22.938Z,28.46
2022-09-24T16:00:27.472Z,28.42
2022-09-24T16:03:32.612Z,28.40
2022-09-24T16:06:37.301Z,28.49
2022-09-24T16:09:40.987Z,28.55
2022-09-24T16:12:44.582Z,28.87
2022-09-24T16:15:47.919Z,29.06
2022-09-24T16:18:51.175Z,29.23
2022-09-24T16:21:55.846Z,29.84
2022-09-24T16:24:59.183Z,29.94
2022-09-24T16:28:02.857Z,30.16
2022-09-24T16:31:07.581Z,30.14
2022-09-24T16:34:11.939Z,30.33
2022-09-24T16:37:18.426Z,30.55
2022-09-24T16:40:21.805Z,30.83
2022-09-24T16:43:25.158Z,31.29
2022-09-24T16:46:28.656Z,31.27
2022-09-24T16:49:31.974Z,31.61
2022-09-24T16:52:36.533Z,31.97
2022-09-24T16:55:39.779Z,32.38
2022-09-24T16:58:44.349Z,32.70
2022-09-24T17:01:47.772Z,32.51
2022-09-24T17:04:53.594Z,32.64
2022-09-24T17:07:58.231Z,32.43
2022-09-24T17:11:00.778Z,32.55
2022-09-24T17:14:04.505Z,33.08
2022-09-24T17:17:08.460Z,33.21
2022-09-24T17:20:12.433Z,33.76
2022-09-24T17:23:17.088Z,33.36
2022-09-24T17:26:22.589Z,33.27
2022-09-24T17:29:31.125Z,33.06
2022-09-24T17:32:34.897Z,32.94
2022-09-24T17:35:38.143Z,33.81
2022-09-24T17:38:43.685Z,33.87
2022-09-24T17:41:46.978Z,34.12
2022-09-24T17:44:50.218Z,34.20
2022-09-24T17:48:01.137Z,34.32
2022-09-24T17:51:06.806Z,34.10
2022-09-24T17:54:14.565Z,34.54
2022-09-24T17:57:17.785Z,34.46
2022-09-24T18:00:21.064Z,34.64
2022-09-24T18:03:24.324Z,34.54
2022-09-24T18:06:32.947Z,34.87
2022-09-24T18:09:38.054Z,35.39
2022-09-24T18:12:41.330Z,35.34
2022-09-24T18:15:44.891Z,36.28
2022-09-24T18:18:50.333Z,36.54
2022-09-24T18:21:53.567Z,36.04
2022-09-24T18:25:01.796Z,35.97
2022-09-24T18:28:05.039Z,37.09
2022-09-24T18:31:09.562Z,37.72
2022-09-24T18:34:15.205Z,37.84
2022-09-24T18:37:18.579Z,37.62
2022-09-24T18:40:23.359Z,38.30
2022-09-24T18:43:26.958Z,38.29
2022-09-24T18:46:32.785Z,39.60
2022-09-24T18:49:37.388Z,39.21
2022-09-24T18:52:40.750Z,40.36
2022-09-24T18:55:45.451Z,39.20
2022-09-24T18:58:48.826Z,39.29
2022-09-24T19:01:52.407Z,38.82
2022-09-24T19:04:55.775Z,39.14
2022-09-24T19:07:59.249Z,38.86
2022-09-24T19:11:09.381Z,38.43
2022-09-24T19:14:15.162Z,39.09
2022-09-24T19:17:19.017Z,38.56
2022-09-24T19:20:23.642Z,39.27
2022-09-24T19:23:26.934Z,40.17
2022-09-24T19:26:33.606Z,40.49
2022-09-24T19:29:36.952Z,40.11
2022-09-24T19:32:40.274Z,40.45
2022-09-24T19:35:45.902Z,41.08
2022-09-24T19:38:49.838Z,41.23
2022-09-24T19:41:54.534Z,41.88
2022-09-24T19:44:58.992Z,41.53
2022-09-24T19:48:02.538Z,41.70
2022-09-24T19:51:09.191Z,41.75
2022-09-24T19:54:12.845Z,42.45
2022-09-24T19:57:18.236Z,42.65
2022-09-24T20:00:23.738Z,43.48
2022-09-24T20:03:27.014Z,42.09
2022-09-24T20:06:31.387Z,42.29
2022-09-24T20:09:34.742Z,43.10
2022-09-24T20:12:41.755Z,42.39
2022-09-24T20:15:45.063Z,42.53
2022-09-24T20:18:48.514Z,42.39
2022-09-24T20:21:53.221Z,41.93
2022-09-24T20:24:56.473Z,42.05
2022-09-24T20:28:00.156Z,42.34
2022-09-24T20:31:10.372Z,42.44
2022-09-24T20:34:13.652Z,42.27
2022-09-24T20:37:17.004Z,43.11
2022-09-24T20:40:20.374Z,42.50
2022-09-24T20:43:25.337Z,41.89
2022-09-24T20:46:29.493Z,41.61
2022-09-24T20:49:33.414Z,41.51
2022-09-24T20:52:36.689Z,41.28
2022-09-24T20:55:40.349Z,41.56
2022-09-24T20:58:45.969Z,41.93
2022-09-24T21:01:49.615Z,42.11
2022-09-24T21:04:53.169Z,41.63
2022-09-24T21:07:56.365Z,42.94
2022-09-24T21:11:02.477Z,42.87
2022-09-24T21:14:10.449Z,42.88
2022-09-24T21:17:13.773Z,44.23
2022-09-24T21:20:17.071Z,42.51
2022-09-24T21:23:21.668Z,42.66
2022-09-24T21:26:27.522Z,42.53
2022-09-24T21:29:32.806Z,43.67
2022-09-24T21:32:38.863Z,43.15
2022-09-24T21:35:42.099Z,43.17
2022-09-24T21:38:46.099Z,42.93
2022-09-24T21:41:55.037Z,43.03
2022-09-24T21:45:01.199Z,43.40
2022-09-24T21:48:04.502Z,43.39
2022-09-24T21:51:10.101Z,43.89
2022-09-24T21:54:16.384Z,43.80
2022-09-24T21:57:19.580Z,43.59
2022-09-24T22:00:24.428Z,44.01
2022-09-24T22:03:27.903Z,44.72
2022-09-24T22:06:32.856Z,44.54
2022-09-24T22:09:36.196Z,45.86
2022-09-24T22:12:39.803Z,45.28
2022-09-24T22:15:46.162Z,45.16
2022-09-24T22:18:49.365Z,45.97
2022-09-24T22:21:53.014Z,45.73
2022-09-24T22:24:56.285Z,46.39
2022-09-24T22:27:59.584Z,46.85
2022-09-24T22:31:08.709Z,47.02
2022-09-24T22:34:29.769Z,46.06
2022-09-24T22:37:32.957Z,45.80
2022-09-24T22:40:36.602Z,45.74
2022-09-24T22:43:40.603Z,45.47
2022-09-24T22:46:45.301Z,45.43
2022-09-24T22:49:48.578Z,45.62
2022-09-24T22:52:52.152Z,45.27
2022-09-24T22:56:04.696Z,45.30
2022-09-24T22:59:08.259Z,45.04
2022-09-24T23:02:13.460Z,45.38
2022-09-24T23:05:17.096Z,47.17
2022-09-24T23:08:20.405Z,47.84
2022-09-24T23:11:25.151Z,46.91
2022-09-24T23:14:28.513Z,46.24
2022-09-24T23:17:33.145Z,45.43
2022-09-24T23:20:36.461Z,45.02
2022-09-24T23:23:40.579Z,44.88
2022-09-24T23:26:44.321Z,46.23
2022-09-24T23:29:47.680Z,47.04
2022-09-24T23:32:52.345Z,46.97
2022-09-24T23:35:55.806Z,46.75
2022-09-24T23:38:59.820Z,47.38
2022-09-24T23:42:03.171Z,47.23
2022-09-24T23:45:07.293Z,46.88
2022-09-24T23:48:12.116Z,46.63
2022-09-24T23:51:15.423Z,47.15
2022-09-24T23:54:18.725Z,47.12
2022-09-24T23:57:21.971Z,47.24
